Time;durP1;ratioP1;P1;durP2;ratioP2;P2;SDS_P1;SDS_P2;PMS_P1;PMS_P2;Temp;Humidity;BMP_temperature;BMP_pressure;BME280_temperature;BME280_humidity;BME280_pressure;Samples;Min_cycle;Max_cycle;Signal;HPM_P1;HPM_P2
2023/01/14 00:00:27;;;;;;;32.70;20.58;;;;;;;4.98;60.48;94116.19;4991950;28;20034;-85
2023/01/14 00:02:53;;;;;;;38.45;22.17;;;;;;;4.60;60.12;94042.00;4968833;28;20038;-85
2023/01/14 00:05:18;;;;;;;32.00;22.23;;;;;;;5.00;60.11;94100.84;4974313;28;20046;-86
2023/01/14 00:07:44;;;;;;;45.53;21.75;;;;;;;4.99;60.08;94094.78;4976755;28;20095;-87
2023/01/14 00:10:10;;;;;;;31.55;21.13;;;;;;;4.68;60.14;94053.84;4991239;28;20064;-86
2023/01/14 00:12:35;;;;;;;33.70;20.48;;;;;;;4.06;60.57;93976.06;4985723;28;20038;-86
2023/01/14 00:15:01;;;;;;;32.83;21.40;;;;;;;5.04;60.39;94115.84;4991300;28;20412;-85
2023/01/14 00:17:26;;;;;;;31.88;20.10;;;;;;;4.99;60.19;94102.69;4969043;28;20033;-86
2023/01/14 00:19:52;;;;;;;31.77;20.80;;;;;;;4.93;60.03;94079.28;4970707;28;20042;-86
2023/01/14 00:22:17;;;;;;;32.45;20.17;;;;;;;5.04;59.67;94094.78;4989598;28;20037;-86
2023/01/14 00:24:42;;;;;;;34.88;21.85;;;;;;;4.43;60.17;94004.69;4978159;28;20066;-86
2023/01/14 00:27:08;;;;;;;32.13;21.27;;;;;;;4.33;60.04;93988.91;4971706;28;20107;-86
2023/01/14 00:29:35;;;;;;;28.65;20.92;;;;;;;4.08;60.26;93963.44;4989387;28;20038;-86
2023/01/14 00:32:04;;;;;;;33.00;21.40;;;;;;;4.39;60.28;94008.13;4990741;28;20606;-85
2023/01/14 00:34:30;;;;;;;33.45;20.48;;;;;;;4.96;60.35;94097.19;4986954;28;20109;-86
2023/01/14 00:37:00;;;;;;;33.40;20.50;;;;;;;3.66;59.99;93899.91;4991426;28;20018;-86
2023/01/14 00:39:26;;;;;;;31.58;20.90;;;;;;;4.79;60.39;94094.91;4971568;28;20125;-86
2023/01/14 00:41:51;;;;;;;36.53;22.52;;;;;;;4.30;61.80;94088.72;4966493;28;20379;-85
2023/01/14 00:44:19;;;;;;;36.63;23.58;;;;;;;4.02;61.84;94017.16;4982068;28;20412;-86
2023/01/14 00:46:45;;;;;;;38.97;27.02;;;;;;;4.58;61.32;94085.50;4973818;28;20532;-86
2023/01/14 00:49:18;;;;;;;41.00;26.65;;;;;;;4.70;60.98;94099.91;4982337;28;20057;-87
2023/01/14 00:51:43;;;;;;;38.10;24.10;;;;;;;4.13;60.60;93994.22;4973658;28;20030;-86
2023/01/14 00:54:09;;;;;;;36.00;22.58;;;;;;;4.50;60.79;94046.53;4990463;28;20069;-85
2023/01/14 00:56:34;;;;;;;37.85;24.42;;;;;;;4.77;60.41;94075.94;4988505;28;20076;-86
2023/01/14 00:59:00;;;;;;;42.08;25.08;;;;;;;4.85;60.45;94096.44;4988792;28;20492;-87
2023/01/14 01:01:25;;;;;;;33.58;23.15;;;;;;;4.96;60.10;94103.25;4972777;28;20594;-86
2023/01/14 01:03:53;;;;;;;37.88;23.42;;;;;;;4.89;60.04;94081.69;4971615;28;20041;-87
2023/01/14 01:06:21;;;;;;;38.22;24.42;;;;;;;5.12;59.83;94101.34;4987086;28;20035;-85
2023/01/14 01:08:56;;;;;;;35.72;22.52;;;;;;;5.01;60.17;94105.88;4972026;28;20085;-86
2023/01/14 01:11:22;;;;;;;39.72;23.10;;;;;;;4.77;60.42;94060.13;4978350;28;20504;-86
2023/01/14 01:13:47;;;;;;;33.92;23.52;;;;;;;4.08;60.04;93958.19;4991582;28;20132;-86
2023/01/14 01:16:15;;;;;;;30.38;22.70;;;;;;;4.04;60.39;93954.50;4975777;28;20408;-86
2023/01/14 01:18:42;;;;;;;29.70;21.73;;;;;;;4.54;60.18;94014.13;4972847;28;20045;-86
2023/01/14 01:21:15;;;;;;;34.15;21.90;;;;;;;4.24;60.19;93986.03;4989462;28;20100;-85
2023/01/14 01:23:45;;;;;;;31.10;21.42;;;;;;;4.97;60.09;94083.75;4982244;28;20133;-86
2023/01/14 01:26:16;;;;;;;31.40;20.80;;;;;;;4.82;60.16;94065.38;4976990;28;20148;-85
2023/01/14 01:28:42;;;;;;;29.63;20.67;;;;;;;4.92;60.13;94091.69;4980801;28;20026;-85
2023/01/14 01:31:11;;;;;;;34.78;21.75;;;;;;;4.75;60.10;94067.50;4995291;28;20121;-85
2023/01/14 01:33:37;;;;;;;29.65;21.45;;;;;;;4.77;60.41;94072.50;4981206;28;20093;-85
2023/01/14 01:36:17;;;;;;;31.90;21.27;;;;;;;4.86;60.52;94084.84;4992447;28;20041;-85
2023/01/14 01:38:43;;;;;;;33.80;20.95;;;;;;;4.72;60.33;94054.88;4975792;28;20034;-85
2023/01/14 01:41:22;;;;;;;29.83;20.40;;;;;;;4.84;60.12;94079.06;4971254;28;20119;-86
2023/01/14 01:44:12;;;;;;;26.27;19.02;;;;;;;4.84;59.91;94078.28;4978109;28;20034;-85
2023/01/14 01:46:38;;;;;;;34.55;20.17;;;;;;;4.82;59.80;94075.13;4992728;28;20037;-85
2023/01/14 01:49:15;;;;;;;27.50;19.67;;;;;;;3.99;59.91;93962.41;4993296;28;20958;-85
2023/01/14 01:52:08;;;;;;;28.35;19.73;;;;;;;4.68;59.83;94074.91;4979963;28;20053;-86
2023/01/14 01:54:39;;;;;;;31.83;20.13;;;;;;;4.63;59.80;94072.31;4983325;28;20054;-85
2023/01/14 01:57:07;;;;;;;32.70;19.75;;;;;;;4.60;60.05;94072.84;4993107;28;20042;-86
2023/01/14 01:59:36;;;;;;;29.40;19.98;;;;;;;4.62;59.99;94065.44;4975855;28;20365;-85
2023/01/14 02:02:02;;;;;;;23.20;17.52;;;;;;;3.37;59.64;93863.69;4991314;28;20042;-86
2023/01/14 02:04:28;;;;;;;30.23;19.52;;;;;;;3.33;58.79;93838.22;4991697;28;20037;-85
2023/01/14 02:06:53;;;;;;;30.58;19.92;;;;;;;4.63;59.69;94067.03;4992001;28;20588;-86
2023/01/14 02:09:20;;;;;;;31.17;18.98;;;;;;;4.52;59.72;94061.00;4974857;28;20034;-86
2023/01/14 02:12:04;;;;;;;29.85;19.48;;;;;;;4.46;60.20;94066.56;4991789;28;20038;-85
2023/01/14 02:15:05;;;;;;;27.92;19.08;;;;;;;4.34;60.79;94061.59;4980474;28;20029;-85
2023/01/14 02:17:42;;;;;;;28.30;18.95;;;;;;;4.61;59.94;94069.13;4978820;28;20045;-86
2023/01/14 02:20:22;;;;;;;29.67;18.33;;;;;;;4.66;59.80;94071.75;4976056;28;20036;-85
2023/01/14 02:23:04;;;;;;;30.55;18.88;;;;;;;4.34;60.51;94063.44;4974888;28;20052;-85
2023/01/14 02:25:44;;;;;;;30.45;19.10;;;;;;;4.36;60.59;94071.84;4991194;28;20065;-85
2023/01/14 02:28:18;;;;;;;28.02;18.13;;;;;;;4.15;60.66;94047.41;4976261;28;20392;-85
2023/01/14 02:31:28;;;;;;;21.83;16.10;;;;;;;4.25;60.41;94066.59;4988984;28;20069;-85
2023/01/14 02:34:05;;;;;;;21.45;16.23;;;;;;;3.39;60.34;93932.56;4918851;29;20197;-86
2023/01/14 02:36:37;;;;;;;21.40;13.38;;;;;;;4.23;60.68;94060.81;4919586;29;20644;-85
2023/01/14 02:39:18;;;;;;;20.50;13.98;;;;;;;4.20;60.46;94063.97;4951282;28;20035;-85
2023/01/14 02:44:39;;;;;;;26.55;15.88;;;;;;;3.73;60.74;94008.25;4988792;28;20373;-85
2023/01/14 02:47:14;;;;;;;21.40;15.18;;;;;;;4.09;60.62;94067.69;4974214;28;20069;-85
2023/01/14 02:49:42;;;;;;;;;;;;;;;4.12;60.76;94067.13;4973190;28;20080;-86
2023/01/14 02:52:08;;;;;;;23.73;15.45;;;;;;;4.15;60.40;94071.09;4991794;28;19964;-85
2023/01/14 02:54:34;;;;;;;25.30;16.55;;;;;;;4.13;60.44;94063.44;4989025;28;20053;-85
2023/01/14 02:57:13;;;;;;;23.73;16.33;;;;;;;3.34;60.76;93958.84;4992614;28;20037;-84
2023/01/14 02:59:42;;;;;;;24.13;16.38;;;;;;;4.03;60.93;94062.69;4974403;28;20041;-85
2023/01/14 03:02:35;;;;;;;24.90;14.38;;;;;;;4.13;60.25;94062.66;4973634;28;20060;-86
2023/01/14 03:05:36;;;;;;;21.95;14.07;;;;;;;3.57;59.73;93978.56;4979600;28;20061;-85
2023/01/14 03:08:21;;;;;;;23.58;14.35;;;;;;;2.55;60.02;93839.59;4992082;28;20050;-85
2023/01/14 03:11:06;;;;;;;22.45;15.63;;;;;;;3.43;60.35;93982.00;4978934;28;20030;-85
2023/01/14 03:13:50;;;;;;;24.83;16.42;;;;;;;4.13;60.11;94068.72;4968581;28;20038;-85
2023/01/14 03:16:28;;;;;;;22.33;15.63;;;;;;;3.32;60.20;93942.56;4971357;28;20401;-85
2023/01/14 03:19:06;;;;;;;23.08;15.70;;;;;;;4.06;60.57;94068.19;4980110;28;20091;-85
2023/01/14 03:21:37;;;;;;;21.15;13.55;;;;;;;4.05;60.18;94066.63;4973087;28;20562;-85
2023/01/14 03:24:34;;;;;;;19.83;13.10;;;;;;;3.28;60.11;93936.25;4969645;28;20042;-85
2023/01/14 03:27:06;;;;;;;21.55;14.23;;;;;;;3.73;60.26;93995.88;4975105;28;20049;-85
2023/01/14 03:29:41;;;;;;;20.67;13.82;;;;;;;3.75;60.16;94004.31;4989871;28;20038;-86
2023/01/14 03:32:39;;;;;;;19.92;13.45;;;;;;;4.07;59.32;94019.75;4973094;28;20532;-85
2023/01/14 03:35:16;;;;;;;16.05;11.50;;;;;;;4.18;59.42;94055.53;4968531;28;20058;-85
2023/01/14 03:37:47;;;;;;;16.02;10.80;;;;;;;4.11;59.36;94057.66;4990727;28;20026;-85
2023/01/14 03:40:16;;;;;;;14.95;10.35;;;;;;;4.02;59.73;94050.56;4971127;28;20439;-86
2023/01/14 03:42:50;;;;;;;12.75;9.07;;;;;;;4.01;59.92;94051.66;4979044;28;20093;-86
2023/01/14 03:45:29;;;;;;;11.05;7.82;;;;;;;4.20;58.97;94048.19;4980764;28;20038;-85
2023/01/14 03:47:55;;;;;;;9.23;7.00;;;;;;;3.69;58.66;93978.28;4975809;28;20185;-86
2023/01/14 03:50:28;;;;;;;8.23;6.38;;;;;;;4.12;59.05;94053.97;4988061;28;20026;-86
2023/01/14 03:53:18;;;;;;;11.02;6.30;;;;;;;4.12;58.92;94053.19;4973437;28;20087;-85
2023/01/14 03:56:10;;;;;;;7.65;5.93;;;;;;;3.90;59.84;94048.22;4989262;28;20528;-85
2023/01/14 03:58:58;;;;;;;6.55;5.20;;;;;;;4.11;59.22;94046.38;4971098;28;20108;-85
2023/01/14 04:01:28;;;;;;;5.93;4.82;;;;;;;4.26;58.20;94047.09;4973565;28;20046;-85
2023/01/14 04:03:54;;;;;;;6.68;5.20;;;;;;;4.07;58.72;94048.72;4979155;28;20034;-85
2023/01/14 04:06:20;;;;;;;6.30;4.78;;;;;;;3.33;58.98;93941.50;4983529;28;20033;-85
2023/01/14 04:08:45;;;;;;;7.53;6.00;;;;;;;3.59;58.88;93967.75;4972862;28;20038;-85
2023/01/14 04:11:13;;;;;;;5.43;4.85;;;;;;;3.43;59.12;93955.72;4989158;28;20038;-85
2023/01/14 04:16:22;;;;;;;14.10;9.20;;;;;;;3.63;62.22;94045.09;4986041;28;20173;-85
2023/01/14 04:18:50;;;;;;;26.52;16.50;;;;;;;2.96;62.08;93902.38;4988318;28;20025;-86
2023/01/14 04:21:16;;;;;;;26.70;16.58;;;;;;;2.46;61.97;93808.59;4987938;28;20029;-85
2023/01/14 04:23:41;;;;;;;28.13;17.67;;;;;;;3.24;63.32;93986.97;4977564;28;20065;-85
2023/01/14 04:26:08;;;;;;;26.27;17.92;;;;;;;3.58;64.15;94045.09;4970010;28;20591;-85
2023/01/14 04:28:33;;;;;;;25.48;17.90;;;;;;;3.15;63.39;93944.66;4988405;28;20034;-85
2023/01/14 04:30:59;;;;;;;27.50;18.52;;;;;;;3.87;62.46;94032.97;4974839;28;20025;-85
2023/01/14 04:33:24;;;;;;;31.70;19.90;;;;;;;3.93;62.34;94021.38;4988023;28;20115;-85
2023/01/14 04:35:56;;;;;;;31.75;20.50;;;;;;;4.04;61.78;94028.19;4989044;28;20026;-85
2023/01/14 04:38:23;;;;;;;29.83;20.02;;;;;;;3.56;61.53;93965.69;4974963;28;20037;-85
2023/01/14 04:40:57;;;;;;;31.10;21.20;;;;;;;3.99;61.47;94028.22;4980551;28;20535;-86
2023/01/14 04:43:23;;;;;;;28.98;20.17;;;;;;;3.90;61.76;94021.91;4972996;28;20041;-86
2023/01/14 04:45:53;;;;;;;28.70;19.60;;;;;;;4.07;61.70;94032.94;4971996;28;20259;-87
2023/01/14 04:48:20;;;;;;;32.65;20.20;;;;;;;4.07;61.23;94035.56;4977214;28;20026;-86
2023/01/14 04:50:46;;;;;;;33.20;21.98;;;;;;;4.16;61.36;94041.84;4971394;28;20053;-86
2023/01/14 04:53:23;;;;;;;28.08;20.80;;;;;;;4.13;60.95;94017.91;4994256;28;20500;-85
2023/01/14 04:55:55;;;;;;;32.08;19.80;;;;;;;4.04;60.89;94007.16;4976088;28;20569;-86
2023/01/14 04:58:23;;;;;;;35.67;21.38;;;;;;;3.73;61.12;93959.06;4992161;28;20048;-86
2023/01/14 05:00:50;;;;;;;35.47;22.60;;;;;;;4.24;61.45;94035.25;4976394;28;20030;-86
2023/01/14 05:03:16;;;;;;;35.17;23.98;;;;;;;4.12;61.46;94019.75;4990189;28;20515;-85
2023/01/14 05:05:42;;;;;;;35.03;22.63;;;;;;;2.90;61.71;93847.47;4991216;28;20030;-86
2023/01/14 05:08:08;;;;;;;32.15;21.75;;;;;;;4.16;61.81;94044.47;4994449;28;20045;-86
2023/01/14 05:10:34;;;;;;;32.10;21.63;;;;;;;4.20;61.59;94042.91;4979298;28;20034;-86
2023/01/14 05:13:02;;;;;;;32.80;21.40;;;;;;;4.17;61.67;94040.00;4985274;28;20510;-85
2023/01/14 05:15:31;;;;;;;26.98;19.40;;;;;;;4.14;61.31;94033.44;4996432;28;20270;-86
2023/01/14 05:17:57;;;;;;;27.73;18.15;;;;;;;4.15;61.09;94024.50;4979259;28;20585;-86
2023/01/14 05:20:23;;;;;;;16.77;12.23;;;;;;;3.98;60.78;93997.69;4975041;28;20034;-85
2023/01/14 05:22:49;;;;;;;12.77;9.82;;;;;;;4.19;59.91;94025.53;4973021;28;21191;-85
2023/01/14 05:25:15;;;;;;;11.07;8.45;;;;;;;4.23;59.44;94045.00;4993448;28;20038;-86
2023/01/14 05:27:40;;;;;;;11.18;9.35;;;;;;;3.14;59.13;93874.75;4989931;28;20029;-85
2023/01/14 05:30:06;;;;;;;11.43;7.20;;;;;;;4.04;58.90;94009.78;4974852;28;20074;-86
2023/01/14 05:32:32;;;;;;;10.90;8.10;;;;;;;3.06;59.00;93859.53;4992148;28;20147;-85
2023/01/14 05:34:58;;;;;;;10.45;7.40;;;;;;;4.29;58.78;94045.78;4979098;28;20041;-84
2023/01/14 05:37:23;;;;;;;10.88;8.15;;;;;;;4.25;58.54;94035.00;4992889;28;20034;-85
2023/01/14 05:39:48;;;;;;;10.57;8.18;;;;;;;4.36;58.08;94050.78;4990458;28;20022;-85
2023/01/14 05:47:42;;;;;;;9.75;7.30;;;;;;;3.75;58.15;93961.44;4990940;28;20101;-85
2023/01/14 05:50:12;;;;;;;11.90;8.07;;;;;;;4.24;58.41;94048.44;4990198;28;20035;-85
2023/01/14 05:52:37;;;;;;;9.73;7.45;;;;;;;4.27;58.18;94043.41;4975860;28;20030;-85
2023/01/14 05:55:04;;;;;;;11.43;8.98;;;;;;;4.11;58.49;94026.06;4968221;28;20069;-85
2023/01/14 05:57:29;;;;;;;49.38;27.73;;;;;;;3.90;58.13;94000.88;4992094;28;20022;-86
2023/01/14 05:59:54;;;;;;;30.30;21.13;;;;;;;4.00;58.18;94011.38;4989108;28;20528;-87
2023/01/14 06:07:48;;;;;;;11.70;9.20;;;;;;;4.25;58.45;94045.53;4988511;28;20459;-86
2023/01/14 06:10:14;;;;;;;12.50;9.05;;;;;;;4.20;58.81;94042.91;4988623;28;20027;-86
2023/01/14 06:12:57;;;;;;;10.13;8.07;;;;;;;4.23;58.72;94060.00;4991752;28;20468;-86
2023/01/14 06:15:39;;;;;;;20.40;12.98;;;;;;;3.38;60.88;94015.09;4977718;28;20224;-87
2023/01/14 06:18:20;;;;;;;77.03;43.38;;;;;;;2.79;62.53;93938.59;4979321;28;20042;-86
2023/01/14 06:20:50;;;;;;;26.95;16.83;;;;;;;3.69;62.00;94026.41;4973773;28;20030;-86
2023/01/14 06:23:16;;;;;;;30.02;17.67;;;;;;;3.95;61.91;94058.75;4994309;28;20033;-86
2023/01/14 06:25:46;;;;;;;29.75;18.20;;;;;;;4.08;61.49;94060.03;4974709;28;20030;-86
2023/01/14 06:28:12;;;;;;;28.58;18.90;;;;;;;4.11;61.40;94065.56;4974413;28;20046;-87
2023/01/14 06:30:37;;;;;;;34.80;23.83;;;;;;;3.92;61.13;94024.25;4976133;28;20539;-86
2023/01/14 06:33:03;;;;;;;30.40;22.33;;;;;;;3.85;61.06;94014.03;4988868;28;20040;-86
2023/01/14 06:35:28;;;;;;;30.88;21.42;;;;;;;4.17;61.54;94059.22;4991201;28;20452;-86
2023/01/14 06:37:54;;;;;;;32.70;24.45;;;;;;;4.23;61.49;94068.69;4970842;28;20058;-86
2023/01/14 06:40:24;;;;;;;38.65;26.48;;;;;;;4.25;61.43;94048.16;4966035;28;20038;-86
2023/01/14 06:43:01;;;;;;;33.30;21.80;;;;;;;4.20;60.57;94027.13;4979840;28;20140;-86
2023/01/14 06:45:26;;;;;;;24.42;17.88;;;;;;;3.94;60.62;93988.75;4974132;28;20083;-86
2023/01/14 06:47:53;;;;;;;27.60;18.48;;;;;;;4.42;60.83;94061.03;4988040;28;20548;-86
2023/01/14 06:50:19;;;;;;;27.10;20.20;;;;;;;3.24;61.21;93892.34;4990045;28;20038;-86
2023/01/14 06:52:45;;;;;;;41.47;25.98;;;;;;;3.03;60.89;93843.53;4989353;28;20117;-86
2023/01/14 06:55:10;;;;;;;38.95;25.30;;;;;;;4.25;61.11;94039.47;4980122;28;20136;-86
2023/01/14 06:57:36;;;;;;;34.58;23.98;;;;;;;3.87;61.22;93976.94;4972783;28;20447;-86
2023/01/14 07:00:05;;;;;;;36.65;24.15;;;;;;;3.67;61.23;93952.22;4977228;28;20044;-85
2023/01/14 07:02:30;;;;;;;32.97;21.80;;;;;;;3.87;61.17;93969.03;4969006;28;20532;-85
2023/01/14 07:04:56;;;;;;;28.23;18.17;;;;;;;3.45;61.61;93924.66;4983288;28;20164;-86
2023/01/14 07:07:21;;;;;;;27.77;19.75;;;;;;;3.19;62.94;93950.97;4962546;28;20037;-86
2023/01/14 07:09:47;;;;;;;27.23;20.13;;;;;;;2.76;64.45;93933.09;4983465;28;20030;-86
2023/01/14 07:12:12;;;;;;;49.50;24.70;;;;;;;2.71;65.90;93952.25;4986208;28;20787;-86
2023/01/14 07:14:37;;;;;;;32.88;22.63;;;;;;;2.42;66.00;93972.13;4987443;28;20069;-86
2023/01/14 07:17:07;;;;;;;36.50;22.30;;;;;;;2.57;67.35;94013.41;4991965;28;20417;-85
2023/01/14 07:19:33;;;;;;;33.83;20.80;;;;;;;2.84;66.39;94014.03;4989378;28;20045;-86
2023/01/14 07:21:58;;;;;;;36.85;21.98;;;;;;;2.64;65.34;93950.94;4994593;28;20527;-86
2023/01/14 07:24:24;;;;;;;31.70;21.00;;;;;;;3.67;64.39;94077.72;4989825;28;20473;-85
2023/01/14 07:26:49;;;;;;;35.53;21.48;;;;;;;2.23;64.49;93879.19;4992118;28;20532;-85
2023/01/14 07:29:15;;;;;;;35.47;23.90;;;;;;;3.47;65.12;94061.94;4973093;28;20038;-86
2023/01/14 07:31:41;;;;;;;38.45;23.60;;;;;;;3.27;64.86;94031.94;4990446;28;20190;-86
2023/01/14 07:34:06;;;;;;;38.33;25.23;;;;;;;3.82;64.67;94104.00;4988098;28;20536;-86
2023/01/14 07:36:32;;;;;;;33.90;23.67;;;;;;;3.15;65.24;94012.22;4986634;28;20019;-86
2023/01/14 07:38:58;;;;;;;37.00;22.40;;;;;;;3.00;65.06;93965.69;4985328;28;20041;-86
2023/01/14 07:41:23;;;;;;;32.90;23.10;;;;;;;3.06;63.05;93890.28;4984976;28;20193;-86
2023/01/14 07:43:49;;;;;;;35.60;23.42;;;;;;;2.95;62.60;93873.72;4971490;28;20484;-87
2023/01/14 07:46:16;;;;;;;34.08;24.00;;;;;;;3.17;62.32;93894.47;4960986;28;20054;-88
2023/01/14 07:48:44;;;;;;;37.08;24.80;;;;;;;4.02;61.61;94024.25;4948632;28;20113;-86
2023/01/14 07:51:11;;;;;;;49.22;36.08;;;;;;;2.89;62.22;93874.81;4976475;28;20026;-86
2023/01/14 07:53:37;;;;;;;40.90;26.13;;;;;;;2.63;65.55;93988.75;4979503;28;20041;-85
2023/01/14 07:56:04;;;;;;;57.47;34.67;;;;;;;3.52;66.62;94109.28;4980562;28;20068;-86
2023/01/14 07:58:33;;;;;;;45.00;27.95;;;;;;;2.88;68.11;94067.63;4968023;28;20034;-85
2023/01/14 08:01:05;;;;;;;55.90;32.30;;;;;;;2.46;70.49;94073.75;4969533;28;20611;-86
2023/01/14 08:03:30;;;;;;;47.03;31.05;;;;;;;2.06;73.16;94112.88;4943891;28;20043;-88
2023/01/14 08:06:00;;;;;;;42.60;26.90;;;;;;;1.50;71.55;93930.78;4937038;28;20050;-83
2023/01/14 08:08:26;;;;;;;46.17;31.80;;;;;;;1.00;70.98;93834.31;4943911;28;20499;-83
2023/01/14 08:10:53;;;;;;;46.78;29.10;;;;;;;1.02;73.07;93884.63;4945733;28;20039;-82
2023/01/14 08:13:19;;;;;;;47.38;31.27;;;;;;;0.59;73.04;93852.38;4940134;28;20042;-82
2023/01/14 08:15:45;;;;;;;48.15;28.85;;;;;;;1.52;73.03;93975.91;4942586;28;20695;-84
2023/01/14 08:18:10;;;;;;;48.05;29.80;;;;;;;2.24;73.46;94120.38;4943139;28;20499;-84
2023/01/14 08:20:36;;;;;;;57.33;32.67;;;;;;;2.04;74.68;94125.47;4945809;28;20532;-84
2023/01/14 08:23:01;;;;;;;56.50;36.00;;;;;;;1.93;75.84;94129.06;4947598;28;20405;-83
2023/01/14 08:25:28;;;;;;;59.97;38.42;;;;;;;1.38;75.70;94048.91;4948307;28;20031;-82
2023/01/14 08:27:54;;;;;;;65.35;39.28;;;;;;;1.99;76.41;94135.94;4949535;28;20018;-83
2023/01/14 08:30:20;;;;;;;61.80;40.40;;;;;;;2.32;74.88;94105.97;4947220;28;20498;-83
2023/01/14 08:32:47;;;;;;;65.03;40.00;;;;;;;1.96;73.45;94002.66;4941739;28;20619;-85
2023/01/14 08:35:13;;;;;;;52.30;37.35;;;;;;;2.51;73.42;94128.91;4941741;28;20043;-84
2023/01/14 08:37:41;;;;;;;41.05;28.30;;;;;;;2.39;72.58;94125.72;4936513;28;20531;-83
2023/01/14 08:40:08;;;;;;;31.95;21.38;;;;;;;2.05;70.24;94037.88;4934239;28;20043;-83
2023/01/14 08:42:33;;;;;;;29.92;20.63;;;;;;;2.06;67.62;93986.94;4946515;28;20038;-83
2023/01/14 08:44:59;;;;;;;22.20;16.00;;;;;;;2.92;66.80;94135.16;4941058;28;20055;-83
2023/01/14 08:47:24;;;;;;;22.65;15.75;;;;;;;2.70;66.88;94123.22;4938160;28;20522;-84
2023/01/14 08:49:49;;;;;;;21.13;14.00;;;;;;;2.03;66.80;93996.13;4947980;28;20110;-82
2023/01/14 08:52:15;;;;;;;21.10;15.80;;;;;;;3.46;65.43;94139.22;4940904;28;20039;-83
2023/01/14 08:54:40;;;;;;;19.10;14.75;;;;;;;3.83;62.95;94131.91;4946324;28;20378;-85
2023/01/14 08:57:09;;;;;;;41.67;29.80;;;;;;;3.65;61.73;94074.56;4943280;28;20054;-85
2023/01/14 08:59:38;;;;;;;29.85;22.23;;;;;;;3.70;61.13;94037.72;4945383;28;20045;-84
2023/01/14 09:02:13;;;;;;;15.85;12.13;;;;;;;4.06;60.24;94068.19;4932093;28;20051;-83
2023/01/14 09:04:39;;;;;;;23.05;18.52;;;;;;;4.53;59.07;94130.28;4945250;28;20038;-84
2023/01/14 09:18:04;;;;;;;15.13;11.32;;;;;;;4.90;57.46;94106.16;4942520;28;20836;-84
2023/01/14 09:20:39;;;;;;;15.52;12.00;;;;;;;4.28;56.30;93971.28;4943256;28;20039;-85
2023/01/14 09:23:07;;;;;;;12.10;9.95;;;;;;;5.11;56.26;94084.72;4943535;28;20039;-84
2023/01/14 09:25:32;;;;;;;11.70;9.25;;;;;;;5.25;55.38;94105.22;4945675;28;20674;-84
2023/01/14 09:27:58;;;;;;;15.45;11.70;;;;;;;5.23;55.88;94110.00;4941220;28;20913;-85
2023/01/14 09:30:24;;;;;;;12.50;10.55;;;;;;;5.25;55.60;94100.72;4944152;28;20365;-84
2023/01/14 09:32:50;;;;;;;13.82;10.75;;;;;;;5.07;55.45;94088.97;4953348;28;20030;-84
2023/01/14 09:35:15;;;;;;;9.57;7.47;;;;;;;4.57;55.78;93983.81;4942440;28;20474;-84
2023/01/14 09:37:41;;;;;;;11.98;9.55;;;;;;;4.82;54.89;94027.69;4953320;28;20086;-84
2023/01/14 09:40:07;;;;;;;10.57;9.18;;;;;;;4.96;55.19;94047.13;4944052;28;20042;-85
2023/01/14 09:42:47;;;;;;;11.63;9.05;;;;;;;5.34;55.41;94091.19;4947165;28;20114;-85
2023/01/14 09:45:16;;;;;;;17.45;11.23;;;;;;;5.57;55.12;94097.66;4945333;28;20054;-84
2023/01/14 09:47:43;;;;;;;12.05;9.13;;;;;;;5.44;54.00;94048.13;4947892;28;20047;-84
2023/01/14 09:50:14;;;;;;;18.75;12.52;;;;;;;5.43;54.79;94049.22;4940424;28;20039;-85
2023/01/14 09:52:56;;;;;;;12.32;9.82;;;;;;;5.50;54.97;94091.88;4948790;28;20374;-84
2023/01/14 09:55:40;;;;;;;13.43;10.25;;;;;;;5.03;54.87;94092.44;4948726;28;20409;-85
2023/01/14 09:58:35;;;;;;;12.20;9.50;;;;;;;5.05;55.31;93992.75;4948973;28;20042;-85
2023/01/14 10:01:03;;;;;;;14.73;9.52;;;;;;;5.40;54.68;94089.31;4945635;28;20063;-85
2023/01/14 10:04:21;;;;;;;13.52;10.43;;;;;;;5.09;55.02;94057.84;4963942;28;20058;-84
2023/01/14 10:06:51;;;;;;;12.98;10.27;;;;;;;5.26;54.67;94096.25;4927605;28;20078;-85
2023/01/14 10:09:40;;;;;;;16.38;10.73;;;;;;;4.58;56.46;94061.78;4916741;28;20375;-84
2023/01/14 10:12:13;;;;;;;12.73;9.77;;;;;;;4.90;56.09;94083.25;4953298;28;20052;-84
2023/01/14 10:14:45;;;;;;;14.88;11.85;;;;;;;4.92;56.49;94086.41;4971300;28;20097;-85
2023/01/14 10:17:19;;;;;;;17.08;11.88;;;;;;;5.19;55.51;94043.03;4969002;28;20046;-85
2023/01/14 10:19:48;;;;;;;21.65;13.38;;;;;;;5.39;55.12;94077.16;4964613;28;20483;-85
2023/01/14 10:22:36;;;;;;;20.38;10.63;;;;;;;5.38;54.21;94078.25;4966901;28;20193;-84
2023/01/14 10:25:04;;;;;;;14.07;11.75;;;;;;;5.54;55.45;94077.88;4972281;28;20375;-84
2023/01/14 10:27:35;;;;;;;14.30;11.32;;;;;;;5.57;55.02;94058.06;4971444;28;20093;-84
2023/01/14 10:30:34;;;;;;;12.95;10.45;;;;;;;3.98;55.30;93881.91;4965290;28;20038;-85
2023/01/14 10:33:04;;;;;;;15.10;11.07;;;;;;;4.14;54.14;93864.97;4915268;28;20117;-85
2023/01/14 10:35:36;;;;;;;18.20;11.65;;;;;;;5.90;53.56;94067.03;4964144;28;20035;-85
2023/01/14 10:38:06;;;;;;;14.20;10.15;;;;;;;5.99;53.17;94062.72;4967209;28;20652;-85
2023/01/14 10:40:32;;;;;;;13.40;10.52;;;;;;;5.14;53.93;93949.72;4967000;28;20118;-84
2023/01/14 10:43:00;;;;;;;19.40;12.73;;;;;;;5.23;53.35;93938.59;4968011;28;20117;-84
2023/01/14 10:45:26;;;;;;;16.20;11.68;;;;;;;6.21;53.09;94060.47;4964866;28;20084;-84
2023/01/14 10:48:02;;;;;;;20.52;12.60;;;;;;;5.77;53.04;94017.53;4966824;28;20035;-83
2023/01/14 10:50:29;;;;;;;23.08;14.93;;;;;;;5.24;53.70;93954.13;4965759;28;20049;-85
2023/01/14 10:53:14;;;;;;;23.50;17.23;;;;;;;4.98;54.59;93958.81;4964962;28;20420;-83
2023/01/14 10:55:49;;;;;;;23.33;17.13;;;;;;;5.26;55.54;94033.75;4965548;28;20042;-85
2023/01/14 10:58:20;;;;;;;31.65;21.65;;;;;;;4.05;56.31;93866.59;4964005;28;20035;-84
2023/01/14 11:00:50;;;;;;;33.75;21.45;;;;;;;4.23;56.95;93950.22;4961168;28;20034;-84
2023/01/14 11:03:40;;;;;;;35.10;23.75;;;;;;;4.64;56.95;93973.78;4968684;28;20057;-84
2023/01/14 11:06:16;;;;;;;31.48;21.20;;;;;;;5.27;55.98;94034.53;4979241;28;20042;-84
2023/01/14 11:08:51;;;;;;;56.58;27.20;;;;;;;5.78;54.40;94038.34;4961047;28;20042;-85
2023/01/14 11:11:20;;;;;;;32.10;21.88;;;;;;;5.87;54.28;94028.78;4968919;28;20572;-84
2023/01/14 11:13:53;;;;;;;34.40;24.55;;;;;;;4.42;55.34;93860.91;4952759;28;20077;-84
2023/01/14 11:16:25;;;;;;;42.50;26.77;;;;;;;5.42;56.02;94037.88;4966497;28;20464;-84
2023/01/14 11:19:27;;;;;;;36.40;26.70;;;;;;;5.57;55.70;94044.88;4959314;28;20365;-84
2023/01/14 11:21:56;;;;;;;43.63;30.85;;;;;;;5.17;56.01;93968.69;4944986;28;20199;-83
2023/01/14 11:24:35;;;;;;;62.60;33.17;;;;;;;4.68;56.28;93914.22;4961402;28;20396;-85
2023/01/14 11:27:05;;;;;;;46.03;29.63;;;;;;;5.04;55.78;93946.38;4967247;28;20576;-85
2023/01/14 11:29:36;;;;;;;40.42;28.08;;;;;;;5.36;55.18;93972.22;4964564;28;20586;-85
2023/01/14 11:32:14;;;;;;;40.65;27.17;;;;;;;5.83;55.43;94037.53;4962487;28;20043;-83
2023/01/14 11:34:50;;;;;;;43.08;29.85;;;;;;;4.75;54.98;93843.53;4961340;28;20505;-83
2023/01/14 11:37:42;;;;;;;61.35;38.58;;;;;;;5.65;55.67;94041.63;4960670;28;20141;-84
2023/01/14 11:43:20;;;;;;;49.80;31.52;;;;;;;4.94;56.11;93914.81;4935778;28;21186;-83
2023/01/14 11:45:46;;;;;;;46.38;29.50;;;;;;;5.51;56.25;94001.13;4967112;28;20065;-83
2023/01/14 11:48:29;;;;;;;46.63;31.40;;;;;;;5.92;55.61;94044.56;4974824;28;20038;-84
2023/01/14 11:51:03;;;;;;;53.33;34.10;;;;;;;5.89;55.38;94036.41;4971213;28;20106;-84
2023/01/14 11:53:49;;;;;;;34.13;24.75;;;;;;;5.89;55.55;94028.50;4959812;28;20042;-82
2023/01/14 11:56:31;;;;;;;37.47;22.75;;;;;;;5.36;57.05;94048.72;4972084;28;20033;-83
2023/01/14 11:59:02;;;;;;;31.73;22.42;;;;;;;5.07;58.25;94030.97;4964959;28;20500;-84
2023/01/14 12:01:41;;;;;;;40.30;25.88;;;;;;;5.04;57.58;93978.78;4964384;28;20685;-83
2023/01/14 12:04:19;;;;;;;41.40;26.35;;;;;;;5.08;57.22;93969.28;4967806;28;20137;-83
2023/01/14 12:06:44;;;;;;;35.17;23.40;;;;;;;5.81;56.90;94044.94;4969631;28;20030;-84
2023/01/14 12:09:18;;;;;;;32.53;22.65;;;;;;;5.38;55.93;93956.94;4968460;28;20025;-83
2023/01/14 12:12:04;;;;;;;33.03;22.42;;;;;;;4.76;55.69;93845.13;4960984;28;20050;-83
2023/01/14 12:17:41;;;;;;;28.92;21.60;;;;;;;5.68;56.09;94035.81;4986573;28;20147;-83